createdAt,value
2022-10-15T00:01:02.983Z,99911.16
2022-10-15T00:03:07.379Z,99909.55
2022-10-15T00:05:11.635Z,99915.55
2022-10-15T00:07:15.865Z,99917.05
2022-10-15T00:09:20.154Z,99914.51
2022-10-15T00:11:24.396Z,99908.8
2022-10-15T00:13:28.676Z,99919.71
2022-10-15T00:15:32.928Z,99907.48
2022-10-15T00:17:37.214Z,99904.64
2022-10-15T00:19:41.542Z,99900.94
2022-10-15T00:21:45.792Z,99902.22
2022-10-15T00:23:50.078Z,99902.53
2022-10-15T00:25:54.359Z,99902.55
2022-10-15T00:27:58.611Z,99896.8
2022-10-15T00:30:02.877Z,99890.13
2022-10-15T00:32:07.170Z,99890.99
2022-10-15T00:34:11.489Z,99890.28
2022-10-15T00:36:15.747Z,99890.03
2022-10-15T00:38:20.016Z,99885.49
2022-10-15T00:40:24.290Z,99882.25
2022-10-15T00:42:28.590Z,99882.77
2022-10-15T00:44:32.822Z,99884.17
2022-10-15T00:46:37.098Z,99886.41
2022-10-15T00:48:41.333Z,99878.34
2022-10-15T00:50:45.624Z,99873.8
2022-10-15T00:52:49.907Z,99875.41
2022-10-15T00:54:54.275Z,99882.7
2022-10-15T00:56:58.542Z,99883.86
2022-10-15T00:59:02.955Z,99874.06
2022-10-15T01:01:07.405Z,99870.46
2022-10-15T01:03:11.828Z,99871.59
2022-10-15T01:05:16.365Z,99865.43
2022-10-15T01:07:20.620Z,99862.03
2022-10-15T01:09:24.911Z,99864.8
2022-10-15T01:11:29.195Z,99860.08
2022-10-15T01:13:33.462Z,99859.78
2022-10-15T01:15:37.733Z,99849.07
2022-10-15T01:17:42.023Z,99844.34
2022-10-15T01:19:46.354Z,99845.33
2022-10-15T01:21:50.613Z,99850.75
2022-10-15T01:23:54.876Z,99841.08
2022-10-15T01:25:59.165Z,99833.8
2022-10-15T01:28:03.448Z,99829.63
2022-10-15T01:30:07.746Z,99834.8
2022-10-15T01:32:12.051Z,99830.45
2022-10-15T01:36:25.020Z,99823.02
2022-10-15T01:38:29.269Z,99825.02
2022-10-15T01:40:33.553Z,99822.06
2022-10-15T01:42:37.861Z,99808.03
2022-10-15T01:44:42.101Z,99800.66
2022-10-15T01:46:46.352Z,99801.73
2022-10-15T01:48:50.629Z,99805.7
2022-10-15T01:50:54.904Z,99807.44
2022-10-15T01:52:59.200Z,99803.12
2022-10-15T01:55:03.459Z,99801.69
2022-10-15T01:57:07.739Z,99799.82
2022-10-15T01:59:12.004Z,99797.71
2022-10-15T02:01:16.580Z,99796.52
2022-10-15T02:03:21.040Z,99791.11
2022-10-15T02:05:25.273Z,99792.72
2022-10-15T02:07:29.527Z,99795.48
2022-10-15T02:09:33.839Z,99796.77
2022-10-15T02:11:38.142Z,99792.52
2022-10-15T02:13:42.457Z,99791.84
2022-10-15T02:15:46.699Z,99788.09
2022-10-15T02:17:50.969Z,99783.91
2022-10-15T02:19:55.404Z,99770.8
2022-10-15T02:21:59.783Z,99771.97
2022-10-15T02:24:04.058Z,99769.33
2022-10-15T02:26:08.355Z,99764.59
2022-10-15T02:28:12.639Z,99755.97
2022-10-15T02:30:17.203Z,99760.95
2022-10-15T02:32:22.137Z,99763.16
2022-10-15T02:34:27.199Z,99763.72
2022-10-15T02:36:31.497Z,99763.88
2022-10-15T02:38:35.744Z,99761.88
2022-10-15T02:40:40.035Z,99754.78
2022-10-15T02:42:44.286Z,99756.95
2022-10-15T02:44:48.599Z,99756.05
2022-10-15T02:46:52.902Z,99756.47
2022-10-15T02:48:57.169Z,99753.61
2022-10-15T02:51:01.459Z,99747.83
2022-10-15T02:53:05.693Z,99744.98
2022-10-15T02:55:09.989Z,99746.05
2022-10-15T02:57:14.307Z,99745.14
2022-10-15T02:59:18.857Z,99748.97
2022-10-15T03:01:23.318Z,99735.96
2022-10-15T03:03:27.845Z,99738.95
2022-10-15T03:05:32.618Z,99738.78
2022-10-15T03:07:36.892Z,99733.19
2022-10-15T03:09:41.157Z,99723.08
2022-10-15T03:11:45.459Z,99714.66
2022-10-15T03:13:49.739Z,99717.23
2022-10-15T03:15:54.070Z,99717.56
2022-10-15T03:17:58.360Z,99715.82
2022-10-15T03:20:02.667Z,99718.48
2022-10-15T03:22:06.973Z,99721.98
2022-10-15T03:24:11.246Z,99721.59
2022-10-15T03:26:15.508Z,99717.65
2022-10-15T03:28:19.902Z,99721.14
2022-10-15T03:30:24.282Z,99716.35
2022-10-15T03:32:29.689Z,99720.17
2022-10-15T03:34:39.738Z,99707.9
2022-10-15T03:36:43.987Z,99710.54
2022-10-15T03:38:48.262Z,99707.16
2022-10-15T03:40:52.568Z,99711.52
2022-10-15T03:42:56.825Z,99705.16
2022-10-15T03:45:01.075Z,99708.56
2022-10-15T03:47:05.353Z,99701.8
2022-10-15T03:49:09.633Z,99698.05
2022-10-15T03:51:20.007Z,99695.61
2022-10-15T03:53:31.275Z,99707.88
2022-10-15T03:55:35.527Z,99699.73
2022-10-15T03:57:39.811Z,99694.54
2022-10-15T04:01:48.289Z,99690.81
2022-10-15T04:03:52.603Z,99691.9
2022-10-15T04:06:01.231Z,99692.76
2022-10-15T04:08:06.823Z,99685.88
2022-10-15T04:10:11.081Z,99690.64
2022-10-15T04:12:15.350Z,99683.28
2022-10-15T04:14:19.622Z,99681.06
2022-10-15T04:16:23.931Z,99682.31
2022-10-15T04:18:28.221Z,99676.74
2022-10-15T04:20:32.450Z,99680.63
2022-10-15T04:22:36.729Z,99676.84
2022-10-15T04:24:40.998Z,99675.08
2022-10-15T04:26:45.284Z,99667.84
2022-10-15T04:28:49.782Z,99669.84
2022-10-15T04:30:54.070Z,99667.88
2022-10-15T04:32:58.325Z,99673.8
2022-10-15T04:35:02.630Z,99683.09
2022-10-15T04:37:06.912Z,99680.02
2022-10-15T04:39:14.793Z,99680.84
2022-10-15T04:41:19.228Z,99681.2
2022-10-15T04:43:23.510Z,99678.94
2022-10-15T04:45:27.758Z,99680.85
2022-10-15T04:47:32.014Z,99683
2022-10-15T04:49:36.243Z,99689.67
2022-10-15T04:51:40.643Z,99688.25
2022-10-15T04:53:44.889Z,99686.84
2022-10-15T04:55:49.148Z,99682.11
2022-10-15T04:57:53.432Z,99677
2022-10-15T04:59:59.072Z,99682.33
2022-10-15T05:02:03.520Z,99684.26
2022-10-15T05:04:07.939Z,99689.88
2022-10-15T05:06:12.230Z,99689.71
2022-10-15T05:08:16.525Z,99692.77
2022-10-15T05:10:20.807Z,99686.8
2022-10-15T05:12:25.108Z,99685.59
2022-10-15T05:14:29.381Z,99681.78
2022-10-15T05:16:33.695Z,99679.36
2022-10-15T05:18:38.010Z,99678.95
2022-10-15T05:20:42.278Z,99674.42
2022-10-15T05:22:46.586Z,99678.67
2022-10-15T05:24:50.854Z,99679.41
2022-10-15T05:26:55.142Z,99681.09
2022-10-15T05:28:59.647Z,99669.58
2022-10-15T05:31:04.055Z,99674.55
2022-10-15T05:33:08.345Z,99667.41
2022-10-15T05:35:12.632Z,99662.44
2022-10-15T05:37:16.921Z,99658.09
2022-10-15T05:39:21.221Z,99657.38
2022-10-15T05:41:25.512Z,99654.91
2022-10-15T05:43:29.835Z,99661.41
2022-10-15T05:45:34.169Z,99654.64
2022-10-15T05:47:38.446Z,99658.97
2022-10-15T05:49:42.825Z,99663.38
2022-10-15T05:51:47.178Z,99671.31
2022-10-15T05:53:51.562Z,99676.07
2022-10-15T05:55:55.901Z,99677.62
2022-10-15T05:58:00.153Z,99683.2
2022-10-15T06:00:04.476Z,99680.04
2022-10-15T06:02:09.059Z,99682.73
2022-10-15T06:04:13.504Z,99678.66
2022-10-15T06:06:17.779Z,99682.95
2022-10-15T06:08:22.198Z,99676.21
2022-10-15T06:10:26.459Z,99683.25
2022-10-15T06:12:30.766Z,99682.75
2022-10-15T06:14:35.096Z,99688.83
2022-10-15T06:16:39.414Z,99689.5
2022-10-15T06:18:43.740Z,99684.86
2022-10-15T06:20:48.078Z,99693.35
2022-10-15T06:22:52.354Z,99690.53
2022-10-15T06:24:56.662Z,99698.25
2022-10-15T06:27:00.921Z,99696.89
2022-10-15T06:29:05.358Z,99698.45
2022-10-15T06:31:09.628Z,99702.45
2022-10-15T06:33:14.124Z,99704.45
2022-10-15T06:35:18.423Z,99707.98
2022-10-15T06:37:23.536Z,99710.14
2022-10-15T06:39:28.490Z,99713.29
2022-10-15T06:41:32.759Z,99711.86
2022-10-15T06:43:37.047Z,99718.16
2022-10-15T06:45:41.341Z,99712.2
2022-10-15T06:47:45.635Z,99715.89
2022-10-15T06:49:49.879Z,99714.7
2022-10-15T06:51:54.176Z,99711.38
2022-10-15T06:54:04.241Z,99718.63
2022-10-15T06:56:08.536Z,99711.06
2022-10-15T06:58:12.830Z,99711.64
2022-10-15T07:00:17.125Z,99714.43
2022-10-15T07:02:21.906Z,99718.22
2022-10-15T07:04:26.817Z,99719.06
2022-10-15T07:06:31.077Z,99720.38
2022-10-15T07:08:35.346Z,99721.84
2022-10-15T07:10:39.661Z,99717.95
2022-10-15T07:12:43.926Z,99719.55
2022-10-15T07:14:48.203Z,99723.14
2022-10-15T07:16:52.485Z,99723.81
2022-10-15T07:18:56.780Z,99730.61
2022-10-15T07:21:01.253Z,99733.55
2022-10-15T07:23:05.689Z,99736.25
2022-10-15T07:25:09.953Z,99736.2
2022-10-15T07:27:21.360Z,99737.94
2022-10-15T07:29:25.626Z,99737.46
2022-10-15T07:31:29.978Z,99738.36
2022-10-15T07:33:34.482Z,99741.33
2022-10-15T07:35:38.815Z,99739.13
2022-10-15T07:37:43.107Z,99737.53
2022-10-15T07:39:47.364Z,99740.95
2022-10-15T07:41:51.665Z,99738.47
2022-10-15T07:43:56.672Z,99740.54
2022-10-15T07:46:01.442Z,99739.59
2022-10-15T07:48:05.741Z,99740.76
2022-10-15T07:50:09.998Z,99742.17
2022-10-15T07:52:14.359Z,99747.22
2022-10-15T07:54:18.581Z,99746.94
2022-10-15T07:56:22.890Z,99736.59
2022-10-15T07:58:27.152Z,99738.9
2022-10-15T08:00:34.564Z,99738.95
2022-10-15T08:02:38.938Z,99737.59
2022-10-15T08:04:43.198Z,99736.11
2022-10-15T08:06:47.661Z,99738.07
2022-10-15T08:08:51.922Z,99739.51
2022-10-15T08:10:56.232Z,99742.39
2022-10-15T08:13:00.525Z,99745.98
2022-10-15T08:15:04.862Z,99744.98
2022-10-15T08:17:09.142Z,99741.8
2022-10-15T08:19:13.722Z,99743.31
2022-10-15T08:21:18.036Z,99757.41
2022-10-15T08:23:22.286Z,99751.88
2022-10-15T08:25:26.562Z,99752.55
2022-10-15T08:27:30.874Z,99757.73
2022-10-15T08:29:35.303Z,99759.2
2022-10-15T08:31:39.596Z,99760.52
2022-10-15T08:33:43.851Z,99765.59
2022-10-15T08:35:48.127Z,99772.13
2022-10-15T08:37:52.421Z,99766.8
2022-10-15T08:39:56.720Z,99765.8
2022-10-15T08:42:01.046Z,99770.67
2022-10-15T08:44:05.288Z,99764.36
2022-10-15T08:46:09.665Z,99764.63
2022-10-15T08:48:14.094Z,99758.51
2022-10-15T08:50:18.348Z,99757.54
2022-10-15T08:52:22.636Z,99758.34
2022-10-15T08:54:26.933Z,99763.23
2022-10-15T08:56:31.240Z,99760.16
2022-10-15T08:58:40.709Z,99758.58
2022-10-15T09:00:45.016Z,99749.72
2022-10-15T09:02:49.410Z,99751.91
2022-10-15T09:04:53.770Z,99751.61
2022-10-15T09:06:58.065Z,99750.05
2022-10-15T09:09:02.338Z,99752.27
2022-10-15T09:11:06.810Z,99751.34
2022-10-15T09:13:16.768Z,99755.2
2022-10-15T09:15:26.911Z,99755.11
2022-10-15T09:17:32.302Z,99760.97
2022-10-15T09:19:36.615Z,99759.44
2022-10-15T09:21:40.903Z,99767.55
2022-10-15T09:23:45.187Z,99762.72
2022-10-15T09:25:49.473Z,99763.65
2022-10-15T09:27:53.722Z,99758.63
2022-10-15T09:29:58.010Z,99763.48
2022-10-15T09:32:02.330Z,99767.55
2022-10-15T09:34:06.639Z,99769.63
2022-10-15T09:36:10.937Z,99772.84
2022-10-15T09:38:15.225Z,99770.45
2022-10-15T09:40:19.573Z,99772.61
2022-10-15T09:42:24.800Z,99777.47
2022-10-15T09:44:29.917Z,99774.64
2022-10-15T09:46:34.186Z,99775.42
2022-10-15T09:48:38.511Z,99771.31
2022-10-15T09:50:42.797Z,99778.23
2022-10-15T09:52:47.117Z,99777.55
2022-10-15T09:54:51.384Z,99789.81
2022-10-15T09:56:55.655Z,99788.59
2022-10-15T09:58:59.989Z,99792.51
2022-10-15T10:01:06.017Z,99785.12
2022-10-15T10:03:10.319Z,99796.68
2022-10-15T10:05:14.626Z,99790.76
2022-10-15T10:07:18.906Z,99793.55
2022-10-15T10:09:23.209Z,99796.55
2022-10-15T10:11:27.505Z,99786.11
2022-10-15T10:13:31.793Z,99792.51
2022-10-15T10:15:36.069Z,99791.59
2022-10-15T10:17:40.563Z,99791.11
2022-10-15T10:19:44.946Z,99792.19
2022-10-15T10:21:49.236Z,99788.8
2022-10-15T10:23:53.537Z,99793.81
2022-10-15T10:25:57.785Z,99781.23
2022-10-15T10:28:02.135Z,99783.95
2022-10-15T10:30:06.389Z,99781.63
2022-10-15T10:32:10.662Z,99778.63
2022-10-15T10:34:14.957Z,99781.22
2022-10-15T10:36:19.210Z,99789.47
2022-10-15T10:38:23.531Z,99783.03
2022-10-15T10:40:27.867Z,99782.39
2022-10-15T10:42:32.150Z,99778.96
2022-10-15T10:44:36.448Z,99786.69
2022-10-15T10:46:40.714Z,99786.22
2022-10-15T10:48:45.061Z,99785.71
2022-10-15T10:50:49.312Z,99780.64
2022-10-15T10:52:53.602Z,99777.48
2022-10-15T10:54:57.910Z,99779.8
2022-10-15T10:57:02.190Z,99778.31
2022-10-15T10:59:06.539Z,99782.63
2022-10-15T11:01:11.050Z,99781.24
2022-10-15T11:03:15.371Z,99775.38
2022-10-15T11:05:19.603Z,99780.01
2022-10-15T11:07:24.435Z,99771.53
2022-10-15T11:09:29.304Z,99766.48
2022-10-15T11:11:33.617Z,99765.7
2022-10-15T11:13:37.923Z,99767.55
2022-10-15T11:15:42.170Z,99764.56
2022-10-15T11:17:46.466Z,99765.47
2022-10-15T11:20:30.493Z,99763.66
2022-10-15T11:22:56.532Z,99761.73
2022-10-15T11:25:08.002Z,99756.05
2022-10-15T11:27:12.934Z,99755.41
2022-10-15T11:29:17.251Z,99750.2
2022-10-15T11:33:26.901Z,99748.52
2022-10-15T11:35:54.145Z,99745.47
2022-10-15T11:37:58.814Z,99746.37
2022-10-15T11:40:03.087Z,99746.02
2022-10-15T11:42:07.357Z,99746.53
2022-10-15T11:44:11.632Z,99747.5
2022-10-15T11:46:15.962Z,99748.52
2022-10-15T11:48:20.252Z,99746.2
2022-10-15T11:50:24.539Z,99753.14
2022-10-15T11:52:28.830Z,99750.78
2022-10-15T11:54:33.090Z,99751.27
2022-10-15T11:56:39.992Z,99749.65
2022-10-15T11:58:44.218Z,99746.88
2022-10-15T12:00:48.642Z,99746.86
2022-10-15T12:02:52.925Z,99749.55
2022-10-15T12:04:57.328Z,99748.06
2022-10-15T12:07:01.601Z,99747.14
2022-10-15T12:09:05.978Z,99751.79
2022-10-15T12:11:10.244Z,99751.42
2022-10-15T12:13:14.542Z,99751.55
2022-10-15T12:15:18.838Z,99751.95
2022-10-15T12:17:23.213Z,99750.81
2022-10-15T12:19:27.472Z,99756.3
2022-10-15T12:21:31.749Z,99744.78
2022-10-15T12:23:36.029Z,99753.23
2022-10-15T12:25:40.329Z,99749.03
2022-10-15T12:27:44.629Z,99747.41
2022-10-15T12:29:48.927Z,99745.58
2022-10-15T12:31:53.218Z,99743.2
2022-10-15T12:33:57.517Z,99739.45
2022-10-15T12:36:01.928Z,99744.23
2022-10-15T12:38:06.174Z,99736.63
2022-10-15T12:40:10.457Z,99734.64
2022-10-15T12:42:14.751Z,99738.95
2022-10-15T12:44:19.247Z,99734.17
2022-10-15T12:46:23.695Z,99736.7
2022-10-15T12:48:27.955Z,99735.94
2022-10-15T12:50:32.245Z,99737.17
2022-10-15T12:52:36.505Z,99740.39
2022-10-15T12:54:40.771Z,99740.05
2022-10-15T12:56:45.071Z,99746.77
2022-10-15T12:58:49.338Z,99749.55
2022-10-15T13:00:53.802Z,99747.64
2022-10-15T13:02:58.214Z,99742.41
2022-10-15T13:05:02.505Z,99743.02
2022-10-15T13:07:06.799Z,99747.39
2022-10-15T13:09:11.267Z,99745.98
2022-10-15T13:11:15.564Z,99749.69
2022-10-15T13:13:19.836Z,99752.19
2022-10-15T13:15:24.142Z,99750.23
2022-10-15T13:17:28.450Z,99749.23
2022-10-15T13:19:32.766Z,99747.86
2022-10-15T13:21:37.141Z,99748.61
2022-10-15T13:23:41.420Z,99745.13
2022-10-15T13:25:45.676Z,99741.84
2022-10-15T13:27:49.966Z,99743.03
2022-10-15T13:29:54.236Z,99745.57
2022-10-15T13:31:58.569Z,99746.64
2022-10-15T13:34:02.832Z,99754.42
2022-10-15T13:36:07.094Z,99751.78
2022-10-15T13:38:12.085Z,99756.39
2022-10-15T13:40:16.390Z,99755.99
2022-10-15T13:42:20.662Z,99760.15
2022-10-15T13:44:25.542Z,99756.42
2022-10-15T13:46:29.837Z,99755.78
2022-10-15T13:48:34.270Z,99757.98
2022-10-15T13:50:38.700Z,99756.44
2022-10-15T13:52:42.982Z,99763.32
2022-10-15T13:54:47.273Z,99763.55
2022-10-15T13:56:51.569Z,99767.78
2022-10-15T13:58:55.864Z,99772.56
2022-10-15T14:01:00.406Z,99775.99
2022-10-15T14:03:04.776Z,99773.56
2022-10-15T14:05:09.061Z,99772.41
2022-10-15T14:07:13.394Z,99773.79
2022-10-15T14:09:17.645Z,99774.2
2022-10-15T14:11:21.939Z,99777.38
2022-10-15T14:13:26.251Z,99773.47
2022-10-15T14:15:30.526Z,99771.59
2022-10-15T14:17:34.802Z,99770.14
2022-10-15T14:19:39.085Z,99773.17
2022-10-15T14:21:43.405Z,99766.73
2022-10-15T14:23:47.761Z,99771.84
2022-10-15T14:25:52.109Z,99772.63
2022-10-15T14:27:56.434Z,99773.22
2022-10-15T14:30:00.702Z,99777.03
2022-10-15T14:32:05.023Z,99775.92
2022-10-15T14:34:09.385Z,99773.89
2022-10-15T14:36:13.891Z,99773.08
2022-10-15T14:38:18.163Z,99772.38
2022-10-15T14:40:22.445Z,99774.79
2022-10-15T14:42:26.751Z,99770.02
2022-10-15T14:44:31.039Z,99773.41
2022-10-15T14:46:35.330Z,99771.08
2022-10-15T14:48:39.639Z,99767.72
2022-10-15T14:50:43.937Z,99771.88
2022-10-15T14:52:48.231Z,99773.27
2022-10-15T14:54:52.504Z,99772.92
2022-10-15T14:56:56.803Z,99773.2
2022-10-15T14:59:01.144Z,99774.42
2022-10-15T15:01:05.477Z,99772.96
2022-10-15T15:03:09.912Z,99772.66
2022-10-15T15:05:14.363Z,99780.52
2022-10-15T15:07:18.697Z,99781.14
2022-10-15T15:09:22.950Z,99790.19
2022-10-15T15:11:27.440Z,99789.61
2022-10-15T15:13:31.712Z,99795.67
2022-10-15T15:15:35.994Z,99794.17
2022-10-15T15:17:40.300Z,99803.24
2022-10-15T15:19:45.020Z,99804.3
2022-10-15T15:21:49.334Z,99802.27
2022-10-15T15:23:53.657Z,99805.09
2022-10-15T15:25:57.968Z,99802.08
2022-10-15T15:28:02.230Z,99801.47
2022-10-15T15:30:06.597Z,99800.8
2022-10-15T15:32:10.896Z,99806.37
2022-10-15T15:34:15.191Z,99817.19
2022-10-15T15:36:23.655Z,99817
2022-10-15T15:38:28.349Z,99815.74
2022-10-15T15:40:32.724Z,99818.59
2022-10-15T15:42:36.987Z,99820.73
2022-10-15T15:44:41.279Z,99819.81
2022-10-15T15:46:45.563Z,99818.81
2022-10-15T15:48:49.901Z,99818.45
2022-10-15T15:50:54.190Z,99820.72
2022-10-15T15:52:58.504Z,99821.44
2022-10-15T15:55:02.824Z,99825.37
2022-10-15T15:57:07.101Z,99822.7
2022-10-15T15:59:11.465Z,99828.08
2022-10-15T16:01:15.855Z,99831.28
2022-10-15T16:03:20.402Z,99834.42
2022-10-15T16:05:24.723Z,99837.94
2022-10-15T16:07:29.962Z,99840.27
2022-10-15T16:09:34.943Z,99840.25
2022-10-15T16:11:39.284Z,99837.73
2022-10-15T16:13:43.608Z,99840.5
2022-10-15T16:15:47.979Z,99841.31
2022-10-15T16:17:52.269Z,99845.86
2022-10-15T16:19:56.579Z,99849.6
2022-10-15T16:22:00.911Z,99856.15
2022-10-15T16:24:05.235Z,99855.68
2022-10-15T16:26:09.544Z,99857.46
2022-10-15T16:28:13.850Z,99855.91
2022-10-15T16:30:18.107Z,99853.84
2022-10-15T16:32:22.413Z,99855.19
2022-10-15T16:34:26.667Z,99855.34
2022-10-15T16:36:31.016Z,99860.89
2022-10-15T16:38:35.287Z,99855.75
2022-10-15T16:40:39.561Z,99862.85
2022-10-15T16:42:43.813Z,99868.03
2022-10-15T16:44:48.107Z,99873.69
2022-10-15T16:46:52.386Z,99865.13
2022-10-15T16:48:56.650Z,99867.3
2022-10-15T16:51:00.968Z,99873.63
2022-10-15T16:53:05.272Z,99872.56
2022-10-15T16:55:09.532Z,99872.25
2022-10-15T16:57:13.832Z,99878.91
2022-10-15T16:59:18.142Z,99879.33
2022-10-15T17:01:22.581Z,99875.88
2022-10-15T17:03:26.969Z,99873.84
2022-10-15T17:05:31.221Z,99877.81
2022-10-15T17:07:35.498Z,99879.51
2022-10-15T17:09:39.942Z,99885.76
2022-10-15T17:11:44.359Z,99889.34
2022-10-15T17:13:48.673Z,99887.8
2022-10-15T17:15:52.925Z,99893.35
2022-10-15T17:18:01.294Z,99896.27
2022-10-15T17:20:05.607Z,99896.8
2022-10-15T17:22:09.927Z,99906.89
2022-10-15T17:24:14.233Z,99908.88
2022-10-15T17:26:18.473Z,99914.84
2022-10-15T17:28:22.759Z,99911.38
2022-10-15T17:30:27.098Z,99915.01
2022-10-15T17:32:31.364Z,99919.3
2022-10-15T17:34:35.664Z,99916.48
2022-10-15T17:36:40.174Z,99918.57
2022-10-15T17:38:44.698Z,99919.25
2022-10-15T17:40:49.083Z,99923.98
2022-10-15T17:42:53.349Z,99932.69
2022-10-15T17:44:57.611Z,99931.25
2022-10-15T17:47:01.896Z,99933.7
2022-10-15T17:49:06.176Z,99930.14
2022-10-15T17:51:10.534Z,99927.88
2022-10-15T17:53:14.864Z,99928.41
2022-10-15T17:55:19.169Z,99926.3
2022-10-15T17:57:24.017Z,99932.93
2022-10-15T17:59:28.974Z,99930.94
2022-10-15T18:01:59.058Z,99939.39
2022-10-15T18:04:04.505Z,99934.67
2022-10-15T18:06:08.843Z,99938.96
2022-10-15T18:08:13.138Z,99936.48
2022-10-15T18:10:17.438Z,99938.02
2022-10-15T18:12:21.740Z,99943.66
2022-10-15T18:14:26.109Z,99941.37
2022-10-15T18:16:30.418Z,99942.6
2022-10-15T18:18:34.710Z,99946.42
2022-10-15T18:20:39.018Z,99945.63
2022-10-15T18:22:43.316Z,99944.87
2022-10-15T18:24:47.615Z,99945.52
2022-10-15T18:26:51.938Z,99946.75
2022-10-15T18:28:56.448Z,99946.3
2022-10-15T18:31:00.912Z,99944.13
2022-10-15T18:33:05.201Z,99950.59
2022-10-15T18:35:09.517Z,99950.47
2022-10-15T18:37:13.809Z,99953.64
2022-10-15T18:39:18.092Z,99957.24
2022-10-15T18:41:22.393Z,99966.94
2022-10-15T18:43:26.741Z,99969.7
2022-10-15T18:45:31.398Z,99964.64
2022-10-15T18:47:35.717Z,99967.19
2022-10-15T18:49:40.013Z,99969.03
2022-10-15T18:51:44.325Z,99972.21
2022-10-15T18:53:48.653Z,99966.45
2022-10-15T18:55:52.957Z,99965.69
2022-10-15T18:57:57.230Z,99965.36
2022-10-15T19:00:01.489Z,99973.6
2022-10-15T19:02:05.880Z,99975.16
2022-10-15T19:04:10.373Z,99968.62
2022-10-15T19:06:14.663Z,99970.79
2022-10-15T19:08:22.467Z,99972.48
2022-10-15T19:10:26.731Z,99977.33
2022-10-15T19:12:31.014Z,99982.04
2022-10-15T19:14:35.224Z,99988.92
2022-10-15T19:16:39.588Z,99979.81
2022-10-15T19:18:43.871Z,99985.89
2022-10-15T19:20:48.103Z,99981.06
2022-10-15T19:22:52.308Z,99989.38
2022-10-15T19:24:56.557Z,99983.41
2022-10-15T19:27:00.898Z,99981.96
2022-10-15T19:29:05.270Z,99982.53
2022-10-15T19:31:09.601Z,99994.77
2022-10-15T19:33:13.918Z,99988.33
2022-10-15T19:35:18.204Z,99991.34
2022-10-15T19:37:22.677Z,99991.11
2022-10-15T19:39:27.734Z,99988.63
2022-10-15T19:41:32.188Z,99988.08
2022-10-15T19:43:36.465Z,99991.09
2022-10-15T19:45:40.754Z,99992.48
2022-10-15T19:47:45.077Z,99990.71
2022-10-15T19:49:49.381Z,99999.18
2022-10-15T19:51:53.735Z,99997.61
2022-10-15T19:53:58.084Z,100001.14
2022-10-15T19:56:02.426Z,100003.92
2022-10-15T19:58:06.836Z,100001.52
2022-10-15T20:00:11.211Z,100006.66
2022-10-15T20:02:15.638Z,100010.81
2022-10-15T20:04:20.049Z,100012.61
2022-10-15T20:06:24.436Z,100014.41
2022-10-15T20:08:28.886Z,100020.36
2022-10-15T20:10:33.457Z,100018.9
2022-10-15T20:12:37.866Z,100022.16
2022-10-15T20:14:42.323Z,100025.73
2022-10-15T20:16:46.678Z,100029.78
2022-10-15T20:18:51.065Z,100032.69
2022-10-15T20:20:55.436Z,100029.3
2022-10-15T20:22:59.794Z,100032.91
2022-10-15T20:25:04.137Z,100036.34
2022-10-15T20:27:08.792Z,100039.6
2022-10-15T20:29:13.249Z,100045.22
2022-10-15T20:31:17.578Z,100043.3
2022-10-15T20:33:21.956Z,100048.38
2022-10-15T20:35:26.318Z,100048.53
2022-10-15T20:37:30.661Z,100046.61
2022-10-15T20:39:34.996Z,100044.35
2022-10-15T20:41:39.303Z,100047.25
2022-10-15T20:43:43.664Z,100048.75
2022-10-15T20:45:47.963Z,100051.56
2022-10-15T20:47:52.309Z,100052.84
2022-10-15T20:49:56.636Z,100053.95
2022-10-15T20:52:00.982Z,100057.42
2022-10-15T20:54:05.338Z,100056.72
2022-10-15T20:56:09.686Z,100060.13
2022-10-15T21:00:19.410Z,100066.69
2022-10-15T21:02:24.470Z,100063.78
2022-10-15T21:04:29.452Z,100063.72
2022-10-15T21:06:33.933Z,100059.22
2022-10-15T21:08:38.309Z,100059.13
2022-10-15T21:10:42.685Z,100057.2
2022-10-15T21:12:47.006Z,100057.98
2022-10-15T21:14:51.373Z,100060.35
2022-10-15T21:16:55.706Z,100063
2022-10-15T21:19:00.069Z,100064.41
2022-10-15T21:21:04.438Z,100065.86
2022-10-15T21:23:08.824Z,100068.91
2022-10-15T21:25:13.137Z,100067.83
2022-10-15T21:27:17.446Z,100072.73
2022-10-15T21:29:21.787Z,100074.31
2022-10-15T21:31:26.155Z,100072.34
2022-10-15T21:33:30.488Z,100073.27
2022-10-15T21:35:34.822Z,100076.88
2022-10-15T21:37:39.238Z,100071.64
2022-10-15T21:39:43.610Z,100072.05
2022-10-15T21:41:47.946Z,100073.78
2022-10-15T21:43:52.650Z,100074.44
2022-10-15T21:45:57.009Z,100078.46
2022-10-15T21:48:01.381Z,100082.94
2022-10-15T21:50:05.746Z,100080.7
2022-10-15T21:52:10.108Z,100081.94
2022-10-15T21:54:14.471Z,100089.69
2022-10-15T21:56:18.773Z,100089.55
2022-10-15T21:58:23.113Z,100091.81
2022-10-15T22:00:27.454Z,100096.91
2022-10-15T22:02:31.772Z,100096.53
2022-10-15T22:04:36.133Z,100102.45
2022-10-15T22:06:40.490Z,100107.02
2022-10-15T22:08:44.864Z,100113.77
2022-10-15T22:10:49.218Z,100115.23
2022-10-15T22:12:53.586Z,100114.58
2022-10-15T22:14:57.924Z,100116.86
2022-10-15T22:17:02.240Z,100118.29
2022-10-15T22:19:06.591Z,100116.41
2022-10-15T22:21:10.955Z,100113.98
2022-10-15T22:23:15.363Z,100113.2
2022-10-15T22:25:19.663Z,100114.58
2022-10-15T22:27:23.987Z,100111.12
2022-10-15T22:29:34.604Z,100111.88
2022-10-15T22:31:39.742Z,100117.44
2022-10-15T22:33:44.081Z,100117.83
2022-10-15T22:35:48.412Z,100118.66
2022-10-15T22:37:52.725Z,100123.64
2022-10-15T22:39:57.147Z,100125.84
2022-10-15T22:42:01.457Z,100127.81
2022-10-15T22:44:05.760Z,100130.64
2022-10-15T22:46:10.108Z,100125.6
2022-10-15T22:48:14.590Z,100131.39
2022-10-15T22:50:18.949Z,100133.41
2022-10-15T22:52:23.861Z,100133.01
2022-10-15T22:54:28.869Z,100137.44
2022-10-15T22:56:33.199Z,100142.61
2022-10-15T22:58:37.525Z,100144.02
2022-10-15T23:00:41.929Z,100145.45
2022-10-15T23:02:46.350Z,100143.51
2022-10-15T23:04:50.720Z,100139.86
2022-10-15T23:06:55.094Z,100133.41
2022-10-15T23:08:59.410Z,100133.95
2022-10-15T23:11:08.486Z,100136.68
2022-10-15T23:13:14.050Z,100128.63
2022-10-15T23:15:18.411Z,100132.41
2022-10-15T23:19:28.057Z,100131.33
2022-10-15T23:21:32.371Z,100128.2
2022-10-15T23:23:36.701Z,100134.56
2022-10-15T23:25:41.044Z,100130.44
2022-10-15T23:27:45.392Z,100129.77
2022-10-15T23:30:13.959Z,100136.02
2022-10-15T23:32:28.676Z,100137.42
2022-10-15T23:34:32.987Z,100136.84
2022-10-15T23:36:37.342Z,100137.28
2022-10-15T23:38:41.694Z,100140.16
2022-10-15T23:40:46.061Z,100139.67
2022-10-15T23:42:50.400Z,100138.19
2022-10-15T23:44:54.695Z,100143.65
2022-10-15T23:46:59.028Z,100149.29
2022-10-15T23:49:03.350Z,100153.08
2022-10-15T23:51:07.679Z,100153.94
2022-10-15T23:53:12.033Z,100151.46
2022-10-15T23:55:16.342Z,100145.41
2022-10-15T23:57:20.672Z,100147.7
2022-10-15T23:59:25.009Z,100155.05
